createdAt,value
2018-10-02T00:01:16.598Z,12.00
2018-10-02T00:03:44.687Z,12.00
2018-10-02T00:08:40.466Z,12.00
2018-10-02T00:11:14.016Z,12.00
2018-10-02T00:13:48.638Z,12.00
2018-10-02T00:16:16.684Z,12.00
2018-10-02T00:23:40.918Z,11.90
2018-10-02T00:26:08.922Z,11.90
2018-10-02T00:28:37.034Z,11.90
2018-10-02T00:31:05.127Z,11.90
2018-10-02T00:33:33.189Z,11.90
2018-10-02T00:36:01.256Z,11.90
2018-10-02T00:43:25.452Z,12.00
2018-10-02T00:48:21.608Z,12.30
2018-10-02T00:50:49.676Z,12.00
2018-10-02T00:53:17.748Z,12.10
2018-10-02T00:55:46.183Z,12.00
2018-10-02T01:00:42.264Z,12.30
2018-10-02T01:03:10.351Z,12.40
2018-10-02T01:08:06.204Z,12.30
2018-10-02T01:10:34.271Z,12.30
2018-10-02T01:15:30.223Z,12.50
2018-10-02T01:17:58.541Z,12.40
2018-10-02T01:25:22.724Z,12.70
2018-10-02T01:27:51.969Z,12.60
2018-10-02T01:30:20.124Z,12.60
2018-10-02T01:32:48.203Z,12.60
2018-10-02T01:35:16.549Z,12.60
2018-10-02T01:37:44.547Z,12.50
2018-10-02T01:40:14.427Z,12.50
2018-10-02T01:42:42.976Z,12.40
2018-10-02T01:45:11.264Z,12.20
2018-10-02T01:50:07.268Z,12.20
2018-10-02T01:52:35.489Z,12.20
2018-10-02T01:55:03.541Z,12.20
2018-10-02T02:00:00.191Z,12.00
2018-10-02T02:04:56.480Z,11.80
2018-10-02T02:07:24.475Z,11.70
2018-10-02T02:09:52.440Z,11.60
2018-10-02T02:14:49.421Z,11.60
2018-10-02T02:19:45.471Z,11.50
2018-10-02T02:22:13.598Z,11.50
2018-10-02T02:24:42.004Z,11.30
2018-10-02T02:27:10.292Z,11.30
2018-10-02T02:29:38.407Z,11.20
2018-10-02T02:32:06.440Z,11.20
2018-10-02T02:34:34.509Z,11.20
2018-10-02T02:37:02.569Z,11.10
2018-10-02T02:39:30.700Z,11.10
2018-10-02T02:41:58.685Z,11.20
2018-10-02T02:46:59.416Z,11.10
2018-10-02T02:49:32.883Z,11.10
2018-10-02T02:52:01.276Z,11.10
2018-10-02T02:56:57.316Z,11.00
2018-10-02T02:59:25.278Z,11.00
2018-10-02T03:04:21.479Z,11.00
2018-10-02T03:09:17.675Z,11.00
2018-10-02T03:11:45.719Z,11.00
2018-10-02T03:14:13.815Z,11.00
2018-10-02T03:16:41.848Z,11.00
2018-10-02T03:19:09.985Z,10.90
2018-10-02T03:21:38.042Z,10.80
2018-10-02T03:24:06.041Z,10.70
2018-10-02T03:26:35.099Z,10.70
2018-10-02T03:31:31.204Z,10.80
2018-10-02T03:33:59.256Z,10.70
2018-10-02T03:36:27.410Z,10.70
2018-10-02T03:41:23.511Z,10.70
2018-10-02T03:43:51.569Z,10.60
2018-10-02T03:46:19.564Z,10.60
2018-10-02T03:48:47.559Z,10.50
2018-10-02T03:51:15.760Z,10.50
2018-10-02T03:53:44.017Z,10.50
2018-10-02T03:56:12.210Z,10.50
2018-10-02T04:06:04.540Z,10.50
2018-10-02T04:08:32.621Z,10.30
2018-10-02T04:11:00.748Z,10.30
2018-10-02T04:13:29.165Z,10.20
2018-10-02T04:15:57.395Z,10.20
2018-10-02T04:18:25.497Z,10.20
2018-10-02T04:20:53.619Z,10.20
2018-10-02T04:28:17.808Z,10.30
2018-10-02T04:30:45.861Z,10.30
2018-10-02T04:35:42.038Z,10.60
2018-10-02T04:40:38.416Z,10.90
2018-10-02T04:43:06.540Z,10.90
2018-10-02T04:48:02.663Z,10.90
2018-10-02T04:50:32.044Z,11.00
2018-10-02T05:02:52.283Z,11.10
2018-10-02T05:05:20.384Z,11.20
2018-10-02T05:07:48.445Z,11.30
2018-10-02T05:10:17.063Z,11.40
2018-10-02T05:12:45.061Z,11.50
2018-10-02T05:15:13.260Z,11.40
2018-10-02T05:20:09.475Z,11.70
2018-10-02T05:22:37.482Z,11.70
2018-10-02T05:25:05.628Z,11.80
2018-10-02T05:27:33.642Z,11.80
2018-10-02T05:34:57.859Z,12.10
2018-10-02T05:39:53.968Z,12.40
2018-10-02T05:42:22.140Z,12.50
2018-10-02T05:48:42.949Z,12.60
2018-10-02T05:53:39.112Z,13.20
2018-10-02T05:58:35.304Z,13.40
2018-10-02T06:01:03.320Z,13.60
2018-10-02T06:03:31.453Z,13.80
2018-10-02T06:05:59.536Z,13.80
2018-10-02T06:10:55.657Z,14.20
2018-10-02T06:13:24.748Z,14.40
2018-10-02T06:15:53.375Z,14.30
2018-10-02T06:18:21.425Z,14.50
2018-10-02T06:20:49.452Z,14.40
2018-10-02T06:23:17.619Z,14.60
2018-10-02T06:25:46.853Z,14.60
2018-10-02T06:28:14.902Z,14.60
2018-10-02T06:30:42.979Z,14.80
2018-10-02T06:33:12.515Z,15.00
2018-10-02T06:35:40.691Z,14.80
2018-10-02T06:38:08.736Z,14.80
2018-10-02T06:43:04.781Z,14.70
2018-10-02T06:45:32.936Z,15.00
2018-10-02T06:48:01.008Z,15.10
2018-10-02T06:50:29.084Z,15.30
2018-10-02T06:52:57.179Z,15.40
2018-10-02T06:55:26.420Z,15.70
2018-10-02T06:57:54.468Z,16.40
2018-10-02T07:00:22.494Z,17.70
2018-10-02T07:02:50.717Z,19.20
2018-10-02T07:05:19.956Z,20.70
2018-10-02T07:07:48.045Z,21.90
2018-10-02T07:10:16.107Z,22.80
2018-10-02T07:12:44.258Z,23.70
2018-10-02T07:15:12.612Z,24.60
2018-10-02T07:17:40.692Z,25.40
2018-10-02T07:20:08.707Z,26.10
2018-10-02T07:27:32.928Z,27.90
2018-10-02T07:30:00.900Z,28.40
2018-10-02T07:32:29.181Z,28.50
2018-10-02T07:34:57.457Z,28.90
2018-10-02T07:37:25.482Z,29.10
2018-10-02T07:39:53.548Z,29.50
2018-10-02T07:42:22.585Z,29.90
2018-10-02T07:44:50.700Z,30.30
2018-10-02T07:47:18.680Z,30.50
2018-10-02T07:49:46.844Z,30.20
2018-10-02T07:52:14.818Z,30.70
2018-10-02T07:57:11.059Z,30.90
2018-10-02T07:59:39.104Z,31.10
2018-10-02T08:02:07.687Z,31.30
2018-10-02T08:04:35.824Z,31.00
2018-10-02T08:07:03.873Z,30.70
2018-10-02T08:09:31.963Z,31.10
2018-10-02T08:12:02.212Z,31.70
2018-10-02T08:14:30.286Z,31.00
2018-10-02T08:16:58.302Z,29.80
2018-10-02T08:21:55.434Z,28.50
2018-10-02T08:24:23.548Z,28.90
2018-10-02T08:26:51.873Z,29.80
2018-10-02T08:31:47.999Z,31.20
2018-10-02T08:34:16.044Z,31.50
2018-10-02T08:36:44.117Z,32.20
2018-10-02T08:39:12.183Z,32.50
2018-10-02T08:41:40.619Z,33.10
2018-10-02T08:44:09.867Z,33.60
2018-10-02T08:46:37.962Z,33.90
2018-10-02T08:49:06.036Z,34.10
2018-10-02T08:51:34.073Z,34.00
2018-10-02T08:54:02.224Z,33.90
2018-10-02T08:56:30.213Z,33.50
2018-10-02T08:58:58.430Z,33.10
2018-10-02T09:01:26.716Z,32.20
2018-10-02T09:03:54.731Z,32.10
2018-10-02T09:08:50.552Z,32.70
2018-10-02T09:13:46.774Z,33.00
2018-10-02T09:16:14.900Z,33.50
2018-10-02T09:18:42.922Z,34.10
2018-10-02T09:21:10.954Z,34.10
2018-10-02T09:23:39.008Z,34.40
2018-10-02T09:26:07.059Z,34.80
2018-10-02T09:31:08.587Z,35.20
2018-10-02T09:33:42.392Z,35.00
2018-10-02T09:36:15.812Z,34.80
2018-10-02T09:38:49.741Z,34.50
2018-10-02T09:41:23.530Z,34.70
2018-10-02T09:43:56.285Z,34.70
2018-10-02T09:46:25.303Z,34.60
2018-10-02T09:48:53.322Z,34.50
2018-10-02T10:01:19.192Z,33.60
2018-10-02T10:03:47.460Z,32.40
2018-10-02T10:06:17.683Z,31.90
2018-10-02T10:08:45.744Z,32.50
2018-10-02T10:11:14.153Z,31.80
2018-10-02T10:16:11.128Z,30.90
2018-10-02T10:18:39.352Z,31.50
2018-10-02T10:21:07.371Z,32.00
2018-10-02T10:23:35.421Z,32.00
2018-10-02T10:30:59.676Z,32.40
2018-10-02T10:33:27.724Z,33.30
2018-10-02T10:35:55.829Z,33.80
2018-10-02T10:38:23.838Z,33.60
2018-10-02T10:40:51.908Z,33.30
2018-10-02T10:43:20.268Z,34.00
2018-10-02T10:45:48.389Z,34.20
2018-10-02T10:48:16.465Z,34.10
2018-10-02T10:50:44.498Z,33.60
2018-10-02T10:53:12.645Z,32.10
2018-10-02T10:55:40.652Z,31.40
2018-10-02T10:58:08.731Z,31.10
2018-10-02T11:00:36.824Z,31.20
2018-10-02T11:03:04.943Z,31.10
2018-10-02T11:05:32.892Z,31.00
2018-10-02T11:08:01.007Z,30.90
2018-10-02T11:10:29.134Z,30.20
2018-10-02T11:15:27.611Z,31.00
2018-10-02T11:17:55.766Z,31.20
2018-10-02T11:22:53.535Z,30.40
2018-10-02T11:25:21.919Z,29.20
2018-10-02T11:27:51.197Z,29.10
2018-10-02T11:30:20.262Z,29.30
2018-10-02T11:32:48.445Z,28.70
2018-10-02T11:35:16.690Z,28.40
2018-10-02T11:40:13.447Z,27.70
2018-10-02T11:42:41.659Z,27.60
2018-10-02T11:45:10.568Z,28.20
2018-10-02T11:47:38.737Z,28.60
2018-10-02T11:50:06.915Z,28.90
2018-10-02T11:52:35.202Z,29.10
2018-10-02T11:57:32.137Z,29.60
2018-10-02T12:00:00.344Z,29.80
2018-10-02T12:02:28.525Z,30.10
2018-10-02T12:04:56.762Z,30.00
2018-10-02T12:07:25.172Z,30.10
2018-10-02T12:09:53.216Z,30.20
2018-10-02T12:12:21.303Z,30.30
2018-10-02T12:17:17.438Z,30.50
2018-10-02T12:19:46.064Z,30.70
2018-10-02T12:22:13.904Z,30.90
2018-10-02T12:27:10.120Z,30.50
2018-10-02T12:29:38.392Z,30.00
2018-10-02T12:32:06.497Z,29.40
2018-10-02T12:34:34.553Z,29.10
2018-10-02T12:37:02.691Z,28.90
2018-10-02T12:39:30.705Z,28.70
2018-10-02T12:44:27.772Z,28.90
2018-10-02T12:51:51.951Z,28.80
2018-10-02T12:54:20.110Z,29.10
2018-10-02T12:56:48.132Z,29.20
2018-10-02T12:59:16.212Z,28.80
2018-10-02T13:01:45.500Z,29.00
2018-10-02T13:04:13.460Z,29.10
2018-10-02T13:06:41.652Z,29.40
2018-10-02T13:09:09.714Z,29.70
2018-10-02T13:14:06.168Z,29.60
2018-10-02T13:16:34.261Z,29.70
2018-10-02T13:19:02.325Z,29.50
2018-10-02T13:24:00.907Z,29.40
2018-10-02T13:26:28.971Z,28.80
2018-10-02T13:28:57.092Z,28.60
2018-10-02T13:31:25.084Z,28.80
2018-10-02T13:36:21.248Z,29.10
2018-10-02T13:38:49.308Z,29.30
2018-10-02T13:41:17.426Z,29.40
2018-10-02T13:46:13.404Z,29.30
2018-10-02T13:48:41.633Z,29.40
2018-10-02T13:58:34.216Z,30.00
2018-10-02T14:03:30.423Z,29.80
2018-10-02T14:08:26.801Z,29.60
2018-10-02T14:10:54.795Z,29.30
2018-10-02T14:13:22.895Z,28.80
2018-10-02T14:15:51.023Z,28.30
2018-10-02T14:18:19.103Z,28.20
2018-10-02T14:20:47.203Z,27.90
2018-10-02T14:23:15.208Z,27.50
2018-10-02T14:25:43.272Z,27.20
2018-10-02T14:30:39.925Z,26.80
2018-10-02T14:33:09.116Z,26.60
2018-10-02T14:35:37.431Z,26.60
2018-10-02T14:38:05.663Z,26.50
2018-10-02T14:43:02.872Z,26.40
2018-10-02T14:45:30.945Z,26.30
2018-10-02T14:47:59.012Z,26.30
2018-10-02T14:50:27.142Z,26.20
2018-10-02T14:52:55.156Z,25.80
2018-10-02T14:55:23.205Z,25.80
2018-10-02T15:02:47.147Z,25.40
2018-10-02T15:07:43.335Z,25.00
2018-10-02T15:17:37.370Z,24.60
2018-10-02T15:20:05.474Z,24.50
2018-10-02T15:27:29.372Z,24.40
2018-10-02T15:29:57.687Z,24.50
2018-10-02T15:32:25.819Z,24.40
2018-10-02T15:37:22.263Z,24.40
2018-10-02T15:42:18.451Z,24.00
2018-10-02T15:44:46.628Z,24.00
2018-10-02T15:47:14.563Z,24.10
2018-10-02T15:49:42.644Z,24.00
2018-10-02T15:52:10.694Z,23.70
2018-10-02T15:54:38.739Z,23.60
2018-10-02T15:59:34.857Z,23.40
2018-10-02T16:09:26.882Z,23.10
2018-10-02T16:11:55.279Z,23.10
2018-10-02T16:14:23.358Z,23.10
2018-10-02T16:16:51.456Z,23.00
2018-10-02T16:19:19.484Z,23.00
2018-10-02T16:21:47.687Z,23.00
2018-10-02T16:24:15.628Z,23.00
2018-10-02T16:26:43.668Z,23.00
2018-10-02T16:29:11.764Z,23.00
2018-10-02T16:31:40.160Z,23.10
2018-10-02T16:34:08.230Z,23.30
2018-10-02T16:36:36.295Z,23.40
2018-10-02T16:39:06.759Z,23.30
2018-10-02T16:44:03.861Z,23.10
2018-10-02T16:46:31.968Z,23.10
2018-10-02T16:49:00.427Z,22.90
2018-10-02T16:53:56.484Z,22.80
2018-10-02T16:56:24.585Z,22.90
2018-10-02T16:58:52.589Z,22.90
2018-10-02T17:01:20.665Z,22.80
2018-10-02T17:03:48.890Z,22.70
2018-10-02T17:08:44.928Z,22.50
2018-10-02T17:11:13.005Z,22.70
2018-10-02T17:16:11.269Z,22.30
2018-10-02T17:21:08.380Z,22.00
2018-10-02T17:23:36.389Z,22.10
2018-10-02T17:26:04.445Z,22.00
2018-10-02T17:28:32.538Z,21.70
2018-10-02T17:31:00.637Z,21.60
2018-10-02T17:33:28.781Z,21.40
2018-10-02T17:38:24.628Z,20.90
2018-10-02T17:40:52.880Z,20.90
2018-10-02T17:43:20.959Z,21.00
2018-10-02T17:45:49.088Z,21.00
2018-10-02T17:48:17.117Z,20.90
2018-10-02T17:50:45.231Z,20.80
2018-10-02T17:53:13.251Z,20.40
2018-10-02T17:55:41.359Z,20.40
2018-10-02T17:58:09.754Z,20.40
2018-10-02T18:00:38.129Z,20.40
2018-10-02T18:03:06.416Z,19.80
2018-10-02T18:05:34.580Z,19.60
2018-10-02T18:12:58.433Z,19.70
2018-10-02T18:15:26.501Z,19.50
2018-10-02T18:17:54.578Z,19.30
2018-10-02T18:20:22.656Z,19.20
2018-10-02T18:22:50.737Z,19.30
2018-10-02T18:25:19.697Z,19.40
2018-10-02T18:27:47.772Z,19.20
2018-10-02T18:30:16.753Z,19.10
2018-10-02T18:32:44.870Z,19.30
2018-10-02T18:35:12.909Z,19.30
2018-10-02T18:37:41.007Z,19.40
2018-10-02T18:40:09.049Z,19.30
2018-10-02T18:42:37.115Z,19.40
2018-10-02T18:45:05.220Z,19.10
2018-10-02T18:52:29.091Z,19.10
2018-10-02T18:57:25.488Z,18.90
2018-10-02T18:59:53.799Z,18.90
2018-10-02T19:02:22.134Z,18.60
2018-10-02T19:04:50.398Z,18.50
2018-10-02T19:07:18.468Z,18.40
2018-10-02T19:09:46.504Z,18.20
2018-10-02T19:12:17.991Z,18.10
2018-10-02T19:14:45.940Z,18.00
2018-10-02T19:17:14.222Z,17.90
2018-10-02T19:22:15.561Z,17.70
2018-10-02T19:24:43.921Z,17.60
2018-10-02T19:29:40.173Z,17.30
2018-10-02T19:32:11.314Z,17.10
2018-10-02T19:34:39.527Z,17.00
2018-10-02T19:37:13.193Z,17.00
2018-10-02T19:42:09.296Z,16.80
2018-10-02T19:44:37.399Z,16.70
2018-10-02T19:47:05.428Z,16.60
2018-10-02T19:49:34.490Z,16.40
2018-10-02T19:52:08.187Z,16.20
2018-10-02T19:57:06.240Z,16.20
2018-10-02T19:59:34.352Z,16.10
2018-10-02T20:02:02.507Z,16.10
2018-10-02T20:04:30.524Z,16.00
2018-10-02T20:09:26.689Z,16.00
2018-10-02T20:14:23.832Z,15.80
2018-10-02T20:19:19.924Z,15.70
2018-10-02T20:24:16.283Z,15.60
2018-10-02T20:26:44.287Z,15.40
2018-10-02T20:31:42.529Z,15.10
2018-10-02T20:34:11.752Z,15.20
2018-10-02T20:36:40.139Z,15.00
2018-10-02T20:39:09.368Z,14.90
2018-10-02T20:41:37.453Z,14.70
2018-10-02T20:44:05.749Z,14.60
2018-10-02T20:51:30.116Z,14.30
2018-10-02T20:56:27.132Z,14.10
2018-10-02T20:58:55.531Z,14.10
2018-10-02T21:01:23.789Z,14.00
2018-10-02T21:03:52.004Z,14.00
2018-10-02T21:06:20.276Z,14.00
2018-10-02T21:13:44.473Z,13.90
2018-10-02T21:16:12.548Z,14.00
2018-10-02T21:18:40.652Z,13.90
2018-10-02T21:21:08.684Z,13.90
2018-10-02T21:23:36.805Z,13.90
2018-10-02T21:26:04.771Z,13.80
2018-10-02T21:28:32.969Z,13.80
2018-10-02T21:31:00.996Z,13.70
2018-10-02T21:33:29.085Z,13.60
2018-10-02T21:35:57.265Z,13.60
2018-10-02T21:38:25.496Z,13.40
2018-10-02T21:40:53.611Z,13.50
2018-10-02T21:43:21.652Z,13.40
2018-10-02T21:52:49.069Z,13.20
2018-10-02T22:00:13.125Z,13.30
2018-10-02T22:02:42.294Z,13.20
2018-10-02T22:07:38.368Z,13.10
2018-10-02T22:12:34.568Z,13.00
2018-10-02T22:15:02.736Z,12.90
2018-10-02T22:17:30.712Z,12.90
2018-10-02T22:19:58.772Z,12.80
2018-10-02T22:22:26.853Z,12.80
2018-10-02T22:24:54.892Z,12.80
2018-10-02T22:27:22.978Z,12.80
2018-10-02T22:29:51.032Z,12.80
2018-10-02T22:32:19.231Z,12.80
2018-10-02T22:34:47.505Z,12.90
2018-10-02T22:39:43.719Z,12.80
2018-10-02T22:42:12.005Z,12.70
2018-10-02T22:49:36.288Z,12.60
2018-10-02T22:54:32.456Z,12.60
2018-10-02T22:57:01.046Z,12.60
2018-10-02T22:59:29.065Z,12.60
2018-10-02T23:01:57.208Z,12.50
2018-10-02T23:04:25.265Z,12.50
2018-10-02T23:06:53.392Z,12.40
2018-10-02T23:09:21.401Z,12.40
2018-10-02T23:14:17.580Z,12.30
2018-10-02T23:16:46.534Z,12.30
2018-10-02T23:19:14.628Z,12.30
2018-10-02T23:24:10.821Z,12.20
2018-10-02T23:26:38.817Z,12.30
2018-10-02T23:29:06.996Z,12.30
2018-10-02T23:31:35.311Z,12.30
2018-10-02T23:34:03.397Z,12.20
2018-10-02T23:36:31.518Z,12.20
2018-10-02T23:38:59.780Z,12.30
2018-10-02T23:41:27.764Z,12.30
2018-10-02T23:43:55.948Z,12.40
2018-10-02T23:46:24.012Z,12.30
2018-10-02T23:48:52.070Z,12.30
2018-10-02T23:51:20.652Z,12.30
2018-10-02T23:53:48.909Z,12.40
2018-10-02T23:56:16.970Z,12.50
2018-10-02T23:58:44.985Z,12.50
